sensor_id;sensor_type;location;lat;lon;timestamp;P1;durP1;ratioP1;P2;durP2;ratioP2
42226;SDS011;27892;52.378;13.122;2023-05-01T00:00:51;7.03;;;5.27;;
42226;SDS011;27892;52.378;13.122;2023-05-01T00:03:17;7.07;;;5.53;;
42226;SDS011;27892;52.378;13.122;2023-05-01T00:05:43;6.53;;;5.10;;
42226;SDS011;27892;52.378;13.122;2023-05-01T00:08:09;6.93;;;5.10;;
42226;SDS011;27892;52.378;13.122;2023-05-01T00:10:35;5.53;;;4.80;;
42226;SDS011;27892;52.378;13.122;2023-05-01T00:13:02;7.97;;;6.17;;
42226;SDS011;27892;52.378;13.122;2023-05-01T00:15:28;6.87;;;6.07;;
42226;SDS011;27892;52.378;13.122;2023-05-01T00:17:54;9.60;;;6.20;;
42226;SDS011;27892;52.378;13.122;2023-05-01T00:20:20;7.77;;;6.00;;
42226;SDS011;27892;52.378;13.122;2023-05-01T00:22:47;8.97;;;6.23;;
42226;SDS011;27892;52.378;13.122;2023-05-01T00:25:13;7.83;;;6.23;;
42226;SDS011;27892;52.378;13.122;2023-05-01T00:27:39;8.10;;;6.23;;
42226;SDS011;27892;52.378;13.122;2023-05-01T00:30:05;6.73;;;5.33;;
42226;SDS011;27892;52.378;13.122;2023-05-01T00:32:31;6.97;;;5.80;;
42226;SDS011;27892;52.378;13.122;2023-05-01T00:34:58;6.93;;;5.53;;
42226;SDS011;27892;52.378;13.122;2023-05-01T00:37:24;7.30;;;5.60;;
42226;SDS011;27892;52.378;13.122;2023-05-01T00:39:49;6.00;;;5.40;;
42226;SDS011;27892;52.378;13.122;2023-05-01T00:42:15;5.63;;;5.03;;
42226;SDS011;27892;52.378;13.122;2023-05-01T00:44:41;5.53;;;4.77;;
42226;SDS011;27892;52.378;13.122;2023-05-01T00:47:06;6.57;;;5.53;;
42226;SDS011;27892;52.378;13.122;2023-05-01T00:49:32;7.63;;;6.00;;
42226;SDS011;27892;52.378;13.122;2023-05-01T00:51:58;5.57;;;4.70;;
42226;SDS011;27892;52.378;13.122;2023-05-01T00:54:24;6.60;;;5.10;;
42226;SDS011;27892;52.378;13.122;2023-05-01T00:56:52;7.30;;;6.13;;
42226;SDS011;27892;52.378;13.122;2023-05-01T00:59:18;6.43;;;5.77;;
42226;SDS011;27892;52.378;13.122;2023-05-01T01:01:44;7.43;;;5.83;;
42226;SDS011;27892;52.378;13.122;2023-05-01T01:04:10;6.87;;;5.30;;
42226;SDS011;27892;52.378;13.122;2023-05-01T01:09:32;5.73;;;4.93;;
42226;SDS011;27892;52.378;13.122;2023-05-01T01:12:24;5.80;;;4.80;;
42226;SDS011;27892;52.378;13.122;2023-05-01T01:17:34;6.33;;;4.73;;
42226;SDS011;27892;52.378;13.122;2023-05-01T01:26:03;7.20;;;5.13;;
42226;SDS011;27892;52.378;13.122;2023-05-01T01:36:42;5.97;;;5.23;;
42226;SDS011;27892;52.378;13.122;2023-05-01T01:39:32;7.07;;;4.90;;
42226;SDS011;27892;52.378;13.122;2023-05-01T01:42:08;5.60;;;4.57;;
42226;SDS011;27892;52.378;13.122;2023-05-01T01:44:45;6.07;;;4.60;;
42226;SDS011;27892;52.378;13.122;2023-05-01T01:47:14;4.90;;;4.30;;
42226;SDS011;27892;52.378;13.122;2023-05-01T01:49:43;4.63;;;3.90;;
42226;SDS011;27892;52.378;13.122;2023-05-01T01:52:14;4.53;;;4.13;;
42226;SDS011;27892;52.378;13.122;2023-05-01T01:54:55;6.07;;;5.13;;
42226;SDS011;27892;52.378;13.122;2023-05-01T01:57:24;5.87;;;5.37;;
42226;SDS011;27892;52.378;13.122;2023-05-01T01:59:53;6.03;;;5.27;;
42226;SDS011;27892;52.378;13.122;2023-05-01T02:02:19;5.80;;;5.20;;
42226;SDS011;27892;52.378;13.122;2023-05-01T02:04:50;8.07;;;5.97;;
42226;SDS011;27892;52.378;13.122;2023-05-01T02:07:18;6.57;;;5.07;;
42226;SDS011;27892;52.378;13.122;2023-05-01T02:09:45;7.20;;;4.70;;
42226;SDS011;27892;52.378;13.122;2023-05-01T02:12:11;5.87;;;4.77;;
42226;SDS011;27892;52.378;13.122;2023-05-01T02:14:40;4.70;;;4.30;;
42226;SDS011;27892;52.378;13.122;2023-05-01T02:17:07;6.60;;;5.13;;
42226;SDS011;27892;52.378;13.122;2023-05-01T02:19:34;6.07;;;5.33;;
42226;SDS011;27892;52.378;13.122;2023-05-01T02:22:06;6.73;;;5.23;;
42226;SDS011;27892;52.378;13.122;2023-05-01T02:24:33;6.23;;;5.07;;
42226;SDS011;27892;52.378;13.122;2023-05-01T02:27:03;7.33;;;5.20;;
42226;SDS011;27892;52.378;13.122;2023-05-01T02:29:34;5.50;;;4.77;;
42226;SDS011;27892;52.378;13.122;2023-05-01T02:32:00;6.20;;;5.13;;
42226;SDS011;27892;52.378;13.122;2023-05-01T02:34:25;8.57;;;6.73;;
42226;SDS011;27892;52.378;13.122;2023-05-01T02:36:52;7.77;;;6.57;;
42226;SDS011;27892;52.378;13.122;2023-05-01T02:39:17;6.73;;;5.37;;
42226;SDS011;27892;52.378;13.122;2023-05-01T02:41:43;5.33;;;4.83;;
42226;SDS011;27892;52.378;13.122;2023-05-01T02:44:10;5.73;;;4.93;;
42226;SDS011;27892;52.378;13.122;2023-05-01T02:46:37;6.17;;;5.03;;
42226;SDS011;27892;52.378;13.122;2023-05-01T02:49:08;5.83;;;4.93;;
42226;SDS011;27892;52.378;13.122;2023-05-01T02:51:36;5.10;;;4.60;;
42226;SDS011;27892;52.378;13.122;2023-05-01T02:54:03;5.63;;;5.03;;
42226;SDS011;27892;52.378;13.122;2023-05-01T02:56:30;5.60;;;4.77;;
42226;SDS011;27892;52.378;13.122;2023-05-01T02:58:56;6.47;;;5.00;;
42226;SDS011;27892;52.378;13.122;2023-05-01T03:01:22;4.90;;;4.40;;
42226;SDS011;27892;52.378;13.122;2023-05-01T03:03:48;6.67;;;5.47;;
42226;SDS011;27892;52.378;13.122;2023-05-01T03:06:13;8.10;;;5.93;;
42226;SDS011;27892;52.378;13.122;2023-05-01T03:08:39;7.20;;;5.70;;
42226;SDS011;27892;52.378;13.122;2023-05-01T03:11:05;6.87;;;5.63;;
42226;SDS011;27892;52.378;13.122;2023-05-01T03:13:32;6.40;;;5.37;;
42226;SDS011;27892;52.378;13.122;2023-05-01T03:15:58;6.40;;;4.80;;
42226;SDS011;27892;52.378;13.122;2023-05-01T03:18:24;5.57;;;4.90;;
42226;SDS011;27892;52.378;13.122;2023-05-01T03:20:50;5.63;;;4.63;;
42226;SDS011;27892;52.378;13.122;2023-05-01T03:23:17;5.87;;;4.80;;
42226;SDS011;27892;52.378;13.122;2023-05-01T03:25:43;6.87;;;5.60;;
42226;SDS011;27892;52.378;13.122;2023-05-01T03:28:08;6.60;;;5.13;;
42226;SDS011;27892;52.378;13.122;2023-05-01T03:30:34;6.30;;;4.97;;
42226;SDS011;27892;52.378;13.122;2023-05-01T03:33:00;5.93;;;4.77;;
42226;SDS011;27892;52.378;13.122;2023-05-01T03:35:26;5.50;;;4.70;;
42226;SDS011;27892;52.378;13.122;2023-05-01T03:37:52;5.07;;;4.37;;
42226;SDS011;27892;52.378;13.122;2023-05-01T03:40:17;6.17;;;4.90;;
42226;SDS011;27892;52.378;13.122;2023-05-01T03:42:43;5.27;;;4.43;;
42226;SDS011;27892;52.378;13.122;2023-05-01T03:45:09;6.37;;;4.53;;
42226;SDS011;27892;52.378;13.122;2023-05-01T03:47:35;5.00;;;4.40;;
42226;SDS011;27892;52.378;13.122;2023-05-01T03:50:01;4.67;;;3.83;;
42226;SDS011;27892;52.378;13.122;2023-05-01T03:52:27;5.07;;;4.57;;
42226;SDS011;27892;52.378;13.122;2023-05-01T03:54:52;4.97;;;4.30;;
42226;SDS011;27892;52.378;13.122;2023-05-01T03:57:18;6.33;;;4.70;;
42226;SDS011;27892;52.378;13.122;2023-05-01T03:59:47;6.10;;;4.90;;
42226;SDS011;27892;52.378;13.122;2023-05-01T04:02:13;6.47;;;4.63;;
42226;SDS011;27892;52.378;13.122;2023-05-01T04:04:39;6.10;;;5.20;;
42226;SDS011;27892;52.378;13.122;2023-05-01T04:07:04;5.20;;;4.60;;
42226;SDS011;27892;52.378;13.122;2023-05-01T04:09:30;6.70;;;4.57;;
42226;SDS011;27892;52.378;13.122;2023-05-01T04:11:56;5.03;;;4.53;;
42226;SDS011;27892;52.378;13.122;2023-05-01T04:14:22;4.77;;;4.27;;
42226;SDS011;27892;52.378;13.122;2023-05-01T04:16:48;4.27;;;3.87;;
42226;SDS011;27892;52.378;13.122;2023-05-01T04:19:14;4.43;;;3.90;;
42226;SDS011;27892;52.378;13.122;2023-05-01T04:21:40;4.57;;;4.00;;
42226;SDS011;27892;52.378;13.122;2023-05-01T04:24:06;4.03;;;3.37;;
42226;SDS011;27892;52.378;13.122;2023-05-01T04:26:32;4.70;;;3.70;;
42226;SDS011;27892;52.378;13.122;2023-05-01T04:28:57;4.47;;;3.57;;
42226;SDS011;27892;52.378;13.122;2023-05-01T04:31:24;3.93;;;3.57;;
42226;SDS011;27892;52.378;13.122;2023-05-01T04:33:50;4.27;;;3.63;;
42226;SDS011;27892;52.378;13.122;2023-05-01T04:36:16;5.77;;;4.43;;
42226;SDS011;27892;52.378;13.122;2023-05-01T04:38:42;6.03;;;4.57;;
42226;SDS011;27892;52.378;13.122;2023-05-01T04:41:08;5.47;;;4.20;;
42226;SDS011;27892;52.378;13.122;2023-05-01T04:43:33;6.03;;;4.67;;
42226;SDS011;27892;52.378;13.122;2023-05-01T04:45:59;9.60;;;6.00;;
42226;SDS011;27892;52.378;13.122;2023-05-01T04:48:25;6.53;;;5.07;;
42226;SDS011;27892;52.378;13.122;2023-05-01T04:50:50;7.87;;;5.77;;
42226;SDS011;27892;52.378;13.122;2023-05-01T04:53:16;7.93;;;5.27;;
42226;SDS011;27892;52.378;13.122;2023-05-01T04:55:42;7.00;;;5.30;;
42226;SDS011;27892;52.378;13.122;2023-05-01T04:58:07;10.93;;;6.80;;
42226;SDS011;27892;52.378;13.122;2023-05-01T05:00:33;7.07;;;6.13;;
42226;SDS011;27892;52.378;13.122;2023-05-01T05:02:59;11.07;;;6.33;;
42226;SDS011;27892;52.378;13.122;2023-05-01T05:05:24;11.83;;;6.50;;
42226;SDS011;27892;52.378;13.122;2023-05-01T05:07:50;7.20;;;6.07;;
42226;SDS011;27892;52.378;13.122;2023-05-01T05:10:16;8.90;;;6.67;;
42226;SDS011;27892;52.378;13.122;2023-05-01T05:12:41;8.63;;;6.17;;
42226;SDS011;27892;52.378;13.122;2023-05-01T05:15:07;8.80;;;6.37;;
42226;SDS011;27892;52.378;13.122;2023-05-01T05:17:33;7.03;;;5.67;;
42226;SDS011;27892;52.378;13.122;2023-05-01T05:19:58;6.27;;;4.90;;
42226;SDS011;27892;52.378;13.122;2023-05-01T05:22:24;10.43;;;6.00;;
42226;SDS011;27892;52.378;13.122;2023-05-01T05:24:53;11.17;;;5.70;;
42226;SDS011;27892;52.378;13.122;2023-05-01T05:27:20;7.90;;;5.33;;
42226;SDS011;27892;52.378;13.122;2023-05-01T05:29:45;7.73;;;5.00;;
42226;SDS011;27892;52.378;13.122;2023-05-01T05:32:11;6.67;;;4.80;;
42226;SDS011;27892;52.378;13.122;2023-05-01T05:34:37;6.13;;;4.80;;
42226;SDS011;27892;52.378;13.122;2023-05-01T05:37:03;8.13;;;5.20;;
42226;SDS011;27892;52.378;13.122;2023-05-01T05:39:29;7.70;;;5.30;;
42226;SDS011;27892;52.378;13.122;2023-05-01T05:41:55;7.10;;;5.10;;
42226;SDS011;27892;52.378;13.122;2023-05-01T05:44:21;6.07;;;5.33;;
42226;SDS011;27892;52.378;13.122;2023-05-01T05:46:47;6.90;;;5.07;;
42226;SDS011;27892;52.378;13.122;2023-05-01T05:49:12;8.40;;;5.27;;
42226;SDS011;27892;52.378;13.122;2023-05-01T05:51:38;6.67;;;5.10;;
42226;SDS011;27892;52.378;13.122;2023-05-01T05:54:04;10.83;;;5.03;;
42226;SDS011;27892;52.378;13.122;2023-05-01T05:56:29;4.80;;;4.23;;
42226;SDS011;27892;52.378;13.122;2023-05-01T05:58:55;8.90;;;4.90;;
42226;SDS011;27892;52.378;13.122;2023-05-01T06:01:20;4.33;;;3.93;;
42226;SDS011;27892;52.378;13.122;2023-05-01T06:03:46;7.70;;;4.97;;
42226;SDS011;27892;52.378;13.122;2023-05-01T06:06:12;7.17;;;4.20;;
42226;SDS011;27892;52.378;13.122;2023-05-01T06:08:38;6.50;;;4.40;;
42226;SDS011;27892;52.378;13.122;2023-05-01T06:11:03;6.63;;;4.35;;
42226;SDS011;27892;52.378;13.122;2023-05-01T06:13:29;6.32;;;4.35;;
42226;SDS011;27892;52.378;13.122;2023-05-01T06:15:55;7.50;;;4.55;;
42226;SDS011;27892;52.378;13.122;2023-05-01T06:18:21;7.75;;;4.72;;
42226;SDS011;27892;52.378;13.122;2023-05-01T06:20:47;7.45;;;4.70;;
42226;SDS011;27892;52.378;13.122;2023-05-01T06:23:12;5.72;;;3.90;;
42226;SDS011;27892;52.378;13.122;2023-05-01T06:25:39;5.93;;;4.07;;
42226;SDS011;27892;52.378;13.122;2023-05-01T06:28:05;6.07;;;4.15;;
42226;SDS011;27892;52.378;13.122;2023-05-01T06:30:30;5.15;;;4.13;;
42226;SDS011;27892;52.378;13.122;2023-05-01T06:32:56;7.88;;;4.57;;
42226;SDS011;27892;52.378;13.122;2023-05-01T06:35:22;5.68;;;3.78;;
42226;SDS011;27892;52.378;13.122;2023-05-01T06:37:47;6.78;;;3.90;;
42226;SDS011;27892;52.378;13.122;2023-05-01T06:40:13;7.78;;;4.25;;
42226;SDS011;27892;52.378;13.122;2023-05-01T06:42:39;5.60;;;3.97;;
42226;SDS011;27892;52.378;13.122;2023-05-01T06:45:05;4.50;;;3.70;;
42226;SDS011;27892;52.378;13.122;2023-05-01T06:47:31;7.03;;;4.25;;
42226;SDS011;27892;52.378;13.122;2023-05-01T06:49:57;5.95;;;3.88;;
42226;SDS011;27892;52.378;13.122;2023-05-01T06:52:23;6.10;;;3.60;;
42226;SDS011;27892;52.378;13.122;2023-05-01T06:54:49;5.95;;;3.80;;
42226;SDS011;27892;52.378;13.122;2023-05-01T06:57:15;5.38;;;3.58;;
42226;SDS011;27892;52.378;13.122;2023-05-01T06:59:40;8.27;;;4.35;;
42226;SDS011;27892;52.378;13.122;2023-05-01T07:02:06;6.22;;;3.67;;
42226;SDS011;27892;52.378;13.122;2023-05-01T07:04:32;6.50;;;3.85;;
42226;SDS011;27892;52.378;13.122;2023-05-01T07:06:57;6.82;;;3.92;;
42226;SDS011;27892;52.378;13.122;2023-05-01T07:09:23;8.50;;;4.20;;
42226;SDS011;27892;52.378;13.122;2023-05-01T07:11:49;6.47;;;4.10;;
42226;SDS011;27892;52.378;13.122;2023-05-01T07:14:15;4.75;;;3.50;;
42226;SDS011;27892;52.378;13.122;2023-05-01T07:16:41;5.90;;;3.30;;
42226;SDS011;27892;52.378;13.122;2023-05-01T07:19:06;4.57;;;3.38;;
42226;SDS011;27892;52.378;13.122;2023-05-01T07:21:32;7.13;;;3.83;;
42226;SDS011;27892;52.378;13.122;2023-05-01T07:23:58;8.43;;;3.67;;
42226;SDS011;27892;52.378;13.122;2023-05-01T07:26:25;6.10;;;4.07;;
42226;SDS011;27892;52.378;13.122;2023-05-01T07:28:51;4.97;;;3.40;;
42226;SDS011;27892;52.378;13.122;2023-05-01T07:31:17;7.25;;;3.70;;
42226;SDS011;27892;52.378;13.122;2023-05-01T07:33:43;5.03;;;3.10;;
42226;SDS011;27892;52.378;13.122;2023-05-01T07:36:08;4.10;;;3.00;;
42226;SDS011;27892;52.378;13.122;2023-05-01T07:38:34;6.45;;;3.67;;
42226;SDS011;27892;52.378;13.122;2023-05-01T07:41:00;7.03;;;3.97;;
42226;SDS011;27892;52.378;13.122;2023-05-01T07:43:25;4.68;;;3.47;;
42226;SDS011;27892;52.378;13.122;2023-05-01T07:45:58;4.88;;;2.95;;
42226;SDS011;27892;52.378;13.122;2023-05-01T07:48:25;3.92;;;2.95;;
42226;SDS011;27892;52.378;13.122;2023-05-01T07:50:51;6.15;;;3.72;;
42226;SDS011;27892;52.378;13.122;2023-05-01T07:53:17;6.20;;;3.30;;
42226;SDS011;27892;52.378;13.122;2023-05-01T07:55:42;5.38;;;3.22;;
42226;SDS011;27892;52.378;13.122;2023-05-01T07:58:08;5.65;;;2.88;;
42226;SDS011;27892;52.378;13.122;2023-05-01T08:00:34;3.15;;;2.80;;
42226;SDS011;27892;52.378;13.122;2023-05-01T08:03:00;3.60;;;3.00;;
42226;SDS011;27892;52.378;13.122;2023-05-01T08:05:26;4.68;;;3.40;;
42226;SDS011;27892;52.378;13.122;2023-05-01T08:07:51;4.38;;;3.28;;
42226;SDS011;27892;52.378;13.122;2023-05-01T08:10:17;3.80;;;2.85;;
42226;SDS011;27892;52.378;13.122;2023-05-01T08:12:43;5.50;;;3.35;;
42226;SDS011;27892;52.378;13.122;2023-05-01T08:15:08;8.63;;;6.15;;
42226;SDS011;27892;52.378;13.122;2023-05-01T08:17:34;3.65;;;2.92;;
42226;SDS011;27892;52.378;13.122;2023-05-01T08:20:00;7.25;;;3.70;;
42226;SDS011;27892;52.378;13.122;2023-05-01T08:22:26;5.50;;;3.40;;
42226;SDS011;27892;52.378;13.122;2023-05-01T08:24:52;3.80;;;2.78;;
42226;SDS011;27892;52.378;13.122;2023-05-01T08:27:18;4.55;;;3.13;;
42226;SDS011;27892;52.378;13.122;2023-05-01T08:29:43;5.28;;;3.00;;
42226;SDS011;27892;52.378;13.122;2023-05-01T08:32:09;5.47;;;3.20;;
42226;SDS011;27892;52.378;13.122;2023-05-01T08:34:35;4.80;;;2.92;;
42226;SDS011;27892;52.378;13.122;2023-05-01T08:37:01;6.90;;;3.40;;
42226;SDS011;27892;52.378;13.122;2023-05-01T08:39:26;4.53;;;2.90;;
42226;SDS011;27892;52.378;13.122;2023-05-01T08:41:52;3.88;;;2.78;;
42226;SDS011;27892;52.378;13.122;2023-05-01T08:44:18;7.10;;;3.00;;
42226;SDS011;27892;52.378;13.122;2023-05-01T08:49:32;5.13;;;3.72;;
42226;SDS011;27892;52.378;13.122;2023-05-01T08:52:01;4.18;;;3.10;;
42226;SDS011;27892;52.378;13.122;2023-05-01T08:54:30;4.60;;;2.97;;
42226;SDS011;27892;52.378;13.122;2023-05-01T08:56:59;4.40;;;3.08;;
42226;SDS011;27892;52.378;13.122;2023-05-01T08:59:35;4.97;;;2.95;;
42226;SDS011;27892;52.378;13.122;2023-05-01T09:02:02;6.15;;;3.10;;
42226;SDS011;27892;52.378;13.122;2023-05-01T09:04:33;4.30;;;2.97;;
42226;SDS011;27892;52.378;13.122;2023-05-01T09:07:01;4.30;;;2.90;;
42226;SDS011;27892;52.378;13.122;2023-05-01T09:09:27;4.05;;;3.08;;
42226;SDS011;27892;52.378;13.122;2023-05-01T09:11:54;4.18;;;2.80;;
42226;SDS011;27892;52.378;13.122;2023-05-01T09:14:23;3.70;;;2.67;;
42226;SDS011;27892;52.378;13.122;2023-05-01T09:16:49;4.78;;;2.72;;
42226;SDS011;27892;52.378;13.122;2023-05-01T09:19:15;6.72;;;3.00;;
42226;SDS011;27892;52.378;13.122;2023-05-01T09:21:41;5.38;;;3.05;;
42226;SDS011;27892;52.378;13.122;2023-05-01T09:24:06;5.68;;;3.30;;
42226;SDS011;27892;52.378;13.122;2023-05-01T09:26:32;3.88;;;2.83;;
42226;SDS011;27892;52.378;13.122;2023-05-01T09:29:00;4.20;;;2.95;;
42226;SDS011;27892;52.378;13.122;2023-05-01T09:31:27;5.78;;;3.22;;
42226;SDS011;27892;52.378;13.122;2023-05-01T09:36:22;5.40;;;2.88;;
42226;SDS011;27892;52.378;13.122;2023-05-01T09:38:49;2.92;;;2.60;;
42226;SDS011;27892;52.378;13.122;2023-05-01T09:41:16;5.68;;;3.00;;
42226;SDS011;27892;52.378;13.122;2023-05-01T09:43:47;4.90;;;3.00;;
42226;SDS011;27892;52.378;13.122;2023-05-01T09:46:21;5.22;;;3.22;;
42226;SDS011;27892;52.378;13.122;2023-05-01T09:48:58;4.82;;;3.40;;
42226;SDS011;27892;52.378;13.122;2023-05-01T09:51:32;4.65;;;3.05;;
42226;SDS011;27892;52.378;13.122;2023-05-01T09:54:02;3.83;;;2.88;;
42226;SDS011;27892;52.378;13.122;2023-05-01T09:56:30;6.13;;;3.38;;
42226;SDS011;27892;52.378;13.122;2023-05-01T09:58:57;6.07;;;3.10;;
42226;SDS011;27892;52.378;13.122;2023-05-01T10:01:39;7.95;;;3.30;;
42226;SDS011;27892;52.378;13.122;2023-05-01T10:04:06;4.80;;;3.40;;
42226;SDS011;27892;52.378;13.122;2023-05-01T10:06:35;5.18;;;2.95;;
42226;SDS011;27892;52.378;13.122;2023-05-01T10:09:02;5.28;;;3.00;;
42226;SDS011;27892;52.378;13.122;2023-05-01T10:11:28;3.33;;;2.85;;
42226;SDS011;27892;52.378;13.122;2023-05-01T10:14:08;6.30;;;3.40;;
42226;SDS011;27892;52.378;13.122;2023-05-01T10:16:35;2.97;;;2.63;;
42226;SDS011;27892;52.378;13.122;2023-05-01T10:19:02;5.55;;;3.28;;
42226;SDS011;27892;52.378;13.122;2023-05-01T10:21:29;7.32;;;3.60;;
42226;SDS011;27892;52.378;13.122;2023-05-01T10:23:59;16.20;;;10.25;;
42226;SDS011;27892;52.378;13.122;2023-05-01T10:26:27;6.68;;;4.68;;
42226;SDS011;27892;52.378;13.122;2023-05-01T10:28:54;7.68;;;3.72;;
42226;SDS011;27892;52.378;13.122;2023-05-01T10:31:23;5.35;;;3.30;;
42226;SDS011;27892;52.378;13.122;2023-05-01T10:33:50;5.07;;;2.92;;
42226;SDS011;27892;52.378;13.122;2023-05-01T10:36:21;4.20;;;2.70;;
42226;SDS011;27892;52.378;13.122;2023-05-01T10:38:52;4.80;;;2.80;;
42226;SDS011;27892;52.378;13.122;2023-05-01T10:44:22;6.43;;;3.63;;
42226;SDS011;27892;52.378;13.122;2023-05-01T10:46:48;4.63;;;3.38;;
42226;SDS011;27892;52.378;13.122;2023-05-01T10:49:14;4.88;;;3.60;;
42226;SDS011;27892;52.378;13.122;2023-05-01T10:54:23;3.53;;;2.55;;
42226;SDS011;27892;52.378;13.122;2023-05-01T10:56:49;3.08;;;2.72;;
42226;SDS011;27892;52.378;13.122;2023-05-01T10:59:15;4.85;;;3.17;;
42226;SDS011;27892;52.378;13.122;2023-05-01T11:01:42;3.90;;;3.10;;
42226;SDS011;27892;52.378;13.122;2023-05-01T11:09:34;4.32;;;2.63;;
42226;SDS011;27892;52.378;13.122;2023-05-01T11:12:00;3.40;;;2.60;;
42226;SDS011;27892;52.378;13.122;2023-05-01T11:14:25;4.93;;;3.15;;
42226;SDS011;27892;52.378;13.122;2023-05-01T11:16:51;4.05;;;2.83;;
42226;SDS011;27892;52.378;13.122;2023-05-01T11:21:45;3.40;;;2.67;;
42226;SDS011;27892;52.378;13.122;2023-05-01T11:24:12;4.80;;;3.03;;
42226;SDS011;27892;52.378;13.122;2023-05-01T11:26:38;5.50;;;3.50;;
42226;SDS011;27892;52.378;13.122;2023-05-01T11:29:07;5.07;;;3.53;;
42226;SDS011;27892;52.378;13.122;2023-05-01T11:31:37;5.18;;;3.25;;
42226;SDS011;27892;52.378;13.122;2023-05-01T11:34:03;4.53;;;3.35;;
42226;SDS011;27892;52.378;13.122;2023-05-01T11:36:48;5.60;;;3.40;;
42226;SDS011;27892;52.378;13.122;2023-05-01T11:39:15;8.52;;;4.30;;
42226;SDS011;27892;52.378;13.122;2023-05-01T11:41:42;4.97;;;3.70;;
42226;SDS011;27892;52.378;13.122;2023-05-01T11:44:10;6.82;;;3.55;;
42226;SDS011;27892;52.378;13.122;2023-05-01T11:46:37;4.30;;;3.67;;
42226;SDS011;27892;52.378;13.122;2023-05-01T11:49:03;4.25;;;3.55;;
42226;SDS011;27892;52.378;13.122;2023-05-01T11:51:29;9.80;;;6.68;;
42226;SDS011;27892;52.378;13.122;2023-05-01T11:56:25;7.28;;;4.20;;
42226;SDS011;27892;52.378;13.122;2023-05-01T11:58:54;5.45;;;3.60;;
42226;SDS011;27892;52.378;13.122;2023-05-01T12:01:37;32.63;;;21.13;;
42226;SDS011;27892;52.378;13.122;2023-05-01T12:04:05;35.70;;;24.35;;
42226;SDS011;27892;52.378;13.122;2023-05-01T12:06:40;6.82;;;4.97;;
42226;SDS011;27892;52.378;13.122;2023-05-01T12:09:16;5.90;;;4.35;;
42226;SDS011;27892;52.378;13.122;2023-05-01T12:11:45;14.70;;;9.68;;
42226;SDS011;27892;52.378;13.122;2023-05-01T12:14:12;15.32;;;10.57;;
42226;SDS011;27892;52.378;13.122;2023-05-01T12:16:39;19.02;;;12.50;;
42226;SDS011;27892;52.378;13.122;2023-05-01T12:19:06;7.15;;;5.07;;
42226;SDS011;27892;52.378;13.122;2023-05-01T12:21:32;5.88;;;4.13;;
42226;SDS011;27892;52.378;13.122;2023-05-01T12:24:07;4.53;;;3.67;;
42226;SDS011;27892;52.378;13.122;2023-05-01T12:26:40;5.32;;;3.65;;
42226;SDS011;27892;52.378;13.122;2023-05-01T12:29:07;5.43;;;4.10;;
42226;SDS011;27892;52.378;13.122;2023-05-01T12:31:33;3.72;;;3.15;;
42226;SDS011;27892;52.378;13.122;2023-05-01T12:34:01;3.92;;;3.30;;
42226;SDS011;27892;52.378;13.122;2023-05-01T12:36:31;7.55;;;4.40;;
42226;SDS011;27892;52.378;13.122;2023-05-01T12:41:40;7.75;;;4.22;;
42226;SDS011;27892;52.378;13.122;2023-05-01T12:44:28;8.88;;;4.50;;
42226;SDS011;27892;52.378;13.122;2023-05-01T12:47:05;4.60;;;3.45;;
42226;SDS011;27892;52.378;13.122;2023-05-01T12:49:32;6.15;;;4.00;;
42226;SDS011;27892;52.378;13.122;2023-05-01T12:52:01;6.75;;;4.35;;
42226;SDS011;27892;52.378;13.122;2023-05-01T12:54:35;7.13;;;4.18;;
42226;SDS011;27892;52.378;13.122;2023-05-01T12:57:10;5.20;;;3.63;;
42226;SDS011;27892;52.378;13.122;2023-05-01T12:59:39;5.63;;;3.78;;
42226;SDS011;27892;52.378;13.122;2023-05-01T13:02:07;6.65;;;4.28;;
42226;SDS011;27892;52.378;13.122;2023-05-01T13:04:37;6.40;;;4.07;;
42226;SDS011;27892;52.378;13.122;2023-05-01T13:07:13;4.60;;;3.80;;
42226;SDS011;27892;52.378;13.122;2023-05-01T13:09:56;8.05;;;4.00;;
42226;SDS011;27892;52.378;13.122;2023-05-01T13:12:23;6.55;;;4.00;;
42226;SDS011;27892;52.378;13.122;2023-05-01T13:14:50;7.03;;;4.32;;
42226;SDS011;27892;52.378;13.122;2023-05-01T13:20:23;4.80;;;3.97;;
42226;SDS011;27892;52.378;13.122;2023-05-01T13:22:49;6.20;;;4.35;;
42226;SDS011;27892;52.378;13.122;2023-05-01T13:25:16;5.47;;;3.95;;
42226;SDS011;27892;52.378;13.122;2023-05-01T13:27:48;6.85;;;4.40;;
42226;SDS011;27892;52.378;13.122;2023-05-01T13:30:15;4.00;;;3.60;;
42226;SDS011;27892;52.378;13.122;2023-05-01T13:32:45;4.85;;;3.35;;
42226;SDS011;27892;52.378;13.122;2023-05-01T13:35:23;5.93;;;4.00;;
42226;SDS011;27892;52.378;13.122;2023-05-01T13:37:51;6.75;;;4.13;;
42226;SDS011;27892;52.378;13.122;2023-05-01T13:40:18;5.82;;;3.42;;
42226;SDS011;27892;52.378;13.122;2023-05-01T13:42:44;5.50;;;3.33;;
42226;SDS011;27892;52.378;13.122;2023-05-01T13:45:11;5.03;;;3.13;;
42226;SDS011;27892;52.378;13.122;2023-05-01T13:47:40;6.20;;;3.65;;
42226;SDS011;27892;52.378;13.122;2023-05-01T13:50:09;3.95;;;3.13;;
42226;SDS011;27892;52.378;13.122;2023-05-01T13:52:41;3.08;;;2.78;;
42226;SDS011;27892;52.378;13.122;2023-05-01T13:55:09;3.00;;;2.70;;
42226;SDS011;27892;52.378;13.122;2023-05-01T13:57:38;6.30;;;3.65;;
42226;SDS011;27892;52.378;13.122;2023-05-01T14:00:06;6.10;;;4.32;;
42226;SDS011;27892;52.378;13.122;2023-05-01T14:02:33;6.55;;;4.35;;
42226;SDS011;27892;52.378;13.122;2023-05-01T14:05:01;4.78;;;3.08;;
42226;SDS011;27892;52.378;13.122;2023-05-01T14:07:31;3.10;;;2.80;;
42226;SDS011;27892;52.378;13.122;2023-05-01T14:09:57;5.00;;;3.75;;
42226;SDS011;27892;52.378;13.122;2023-05-01T14:12:30;3.17;;;2.88;;
42226;SDS011;27892;52.378;13.122;2023-05-01T14:14:56;4.72;;;3.17;;
42226;SDS011;27892;52.378;13.122;2023-05-01T14:17:32;3.08;;;2.78;;
42226;SDS011;27892;52.378;13.122;2023-05-01T14:19:59;4.05;;;3.42;;
42226;SDS011;27892;52.378;13.122;2023-05-01T14:22:28;5.75;;;3.25;;
42226;SDS011;27892;52.378;13.122;2023-05-01T14:24:56;3.35;;;2.85;;
42226;SDS011;27892;52.378;13.122;2023-05-01T14:27:22;6.07;;;3.30;;
42226;SDS011;27892;52.378;13.122;2023-05-01T14:29:48;4.00;;;3.00;;
42226;SDS011;27892;52.378;13.122;2023-05-01T14:32:14;5.78;;;3.63;;
42226;SDS011;27892;52.378;13.122;2023-05-01T14:34:40;4.10;;;3.38;;
42226;SDS011;27892;52.378;13.122;2023-05-01T14:37:10;4.40;;;3.22;;
42226;SDS011;27892;52.378;13.122;2023-05-01T14:39:39;3.95;;;2.88;;
42226;SDS011;27892;52.378;13.122;2023-05-01T14:42:04;4.03;;;2.78;;
42226;SDS011;27892;52.378;13.122;2023-05-01T14:44:30;4.55;;;2.83;;
42226;SDS011;27892;52.378;13.122;2023-05-01T14:46:56;5.82;;;4.10;;
42226;SDS011;27892;52.378;13.122;2023-05-01T14:49:23;4.20;;;3.50;;
42226;SDS011;27892;52.378;13.122;2023-05-01T14:51:50;4.38;;;3.30;;
42226;SDS011;27892;52.378;13.122;2023-05-01T14:54:17;4.35;;;3.63;;
42226;SDS011;27892;52.378;13.122;2023-05-01T14:56:43;2.75;;;2.55;;
42226;SDS011;27892;52.378;13.122;2023-05-01T14:59:10;4.93;;;3.72;;
42226;SDS011;27892;52.378;13.122;2023-05-01T15:01:36;4.38;;;3.35;;
42226;SDS011;27892;52.378;13.122;2023-05-01T15:04:02;4.97;;;4.00;;
42226;SDS011;27892;52.378;13.122;2023-05-01T15:06:31;4.78;;;3.45;;
42226;SDS011;27892;52.378;13.122;2023-05-01T15:08:57;6.85;;;4.25;;
42226;SDS011;27892;52.378;13.122;2023-05-01T15:11:23;5.10;;;3.75;;
42226;SDS011;27892;52.378;13.122;2023-05-01T15:13:49;3.65;;;2.88;;
42226;SDS011;27892;52.378;13.122;2023-05-01T15:16:15;6.40;;;4.13;;
42226;SDS011;27892;52.378;13.122;2023-05-01T15:18:41;4.72;;;3.20;;
42226;SDS011;27892;52.378;13.122;2023-05-01T15:21:06;4.40;;;3.45;;